Terminal Aerodrome Forecast
Issued by NWS Memphis, TN

Home | Current Version | Previous Version | Text Only | Print | Product List | Glossary On
Versions: 1 2 3 4 5 6 7 8 9 10 11 12 13 14 15 16 17 18 19 20 21 22 23 24 25 26 27 28 29
000
FTUS44 KMEG 162321
TAFMEM
TAF
KMEM 162321Z 1700/1806 36006KT P6SM FEW025
     FM170400 36008KT P6SM SCT025 BKN035
      TEMPO 1704/1708 BKN025
     FM170800 01005KT P6SM SCT035
     FM171200 34006KT P6SM SKC=

USA.gov is the U.S. government's official web portal to all federal, state and local government web resources and services.